sensor_id;sensor_type;location;lat;lon;timestamp;P1;durP1;ratioP1;P2;durP2;ratioP2
23418;SDS011;11882;42.522;27.458;2022-10-15T00:01:10;13.73;;;11.80;;
23418;SDS011;11882;42.522;27.458;2022-10-15T00:03:38;5.93;;;2.07;;
23418;SDS011;11882;42.522;27.458;2022-10-15T00:06:09;2.87;;;1.83;;
23418;SDS011;11882;42.522;27.458;2022-10-15T00:08:38;238.23;;;178.37;;
23418;SDS011;11882;42.522;27.458;2022-10-15T00:11:06;376.83;;;232.00;;
23418;SDS011;11882;42.522;27.458;2022-10-15T00:13:34;436.67;;;163.60;;
23418;SDS011;11882;42.522;27.458;2022-10-15T00:16:01;435.97;;;212.40;;
23418;SDS011;11882;42.522;27.458;2022-10-15T00:18:28;433.77;;;226.40;;
23418;SDS011;11882;42.522;27.458;2022-10-15T00:20:55;421.97;;;168.73;;
23418;SDS011;11882;42.522;27.458;2022-10-15T00:23:24;7.03;;;2.10;;
23418;SDS011;11882;42.522;27.458;2022-10-15T00:25:59;95.33;;;34.73;;
23418;SDS011;11882;42.522;27.458;2022-10-15T00:28:27;11.53;;;9.83;;
23418;SDS011;11882;42.522;27.458;2022-10-15T00:30:58;3.63;;;2.00;;
23418;SDS011;11882;42.522;27.458;2022-10-15T00:33:26;7.67;;;2.27;;
23418;SDS011;11882;42.522;27.458;2022-10-15T00:36:00;35.37;;;31.77;;
23418;SDS011;11882;42.522;27.458;2022-10-15T00:38:29;4.03;;;1.60;;
23418;SDS011;11882;42.522;27.458;2022-10-15T00:40:56;3.80;;;1.73;;
23418;SDS011;11882;42.522;27.458;2022-10-15T00:43:36;3.97;;;2.07;;
23418;SDS011;11882;42.522;27.458;2022-10-15T00:46:05;3.70;;;1.90;;
23418;SDS011;11882;42.522;27.458;2022-10-15T00:48:42;5.70;;;1.93;;
23418;SDS011;11882;42.522;27.458;2022-10-15T00:51:09;4.37;;;1.73;;
23418;SDS011;11882;42.522;27.458;2022-10-15T00:53:38;7.30;;;1.87;;
23418;SDS011;11882;42.522;27.458;2022-10-15T00:56:05;4.40;;;1.87;;
23418;SDS011;11882;42.522;27.458;2022-10-15T00:58:33;7.40;;;2.17;;
23418;SDS011;11882;42.522;27.458;2022-10-15T01:01:01;5.10;;;1.73;;
23418;SDS011;11882;42.522;27.458;2022-10-15T01:03:28;3.40;;;1.80;;
23418;SDS011;11882;42.522;27.458;2022-10-15T01:05:55;379.80;;;160.53;;
23418;SDS011;11882;42.522;27.458;2022-10-15T01:08:22;4.63;;;1.80;;
23418;SDS011;11882;42.522;27.458;2022-10-15T01:10:52;3.87;;;1.73;;
23418;SDS011;11882;42.522;27.458;2022-10-15T01:13:30;7.30;;;1.73;;
23418;SDS011;11882;42.522;27.458;2022-10-15T01:16:04;84.17;;;73.50;;
23418;SDS011;11882;42.522;27.458;2022-10-15T01:18:38;294.90;;;262.87;;
23418;SDS011;11882;42.522;27.458;2022-10-15T01:21:10;423.23;;;137.57;;
23418;SDS011;11882;42.522;27.458;2022-10-15T01:33:02;358.37;;;73.93;;
23418;SDS011;11882;42.522;27.458;2022-10-15T01:35:42;363.97;;;84.97;;
23418;SDS011;11882;42.522;27.458;2022-10-15T01:38:17;363.40;;;74.27;;
23418;SDS011;11882;42.522;27.458;2022-10-15T01:40:50;358.27;;;73.80;;
23418;SDS011;11882;42.522;27.458;2022-10-15T01:43:25;361.37;;;77.20;;
23418;SDS011;11882;42.522;27.458;2022-10-15T01:45:57;374.57;;;87.67;;
23418;SDS011;11882;42.522;27.458;2022-10-15T01:48:29;381.03;;;89.37;;
23418;SDS011;11882;42.522;27.458;2022-10-15T01:50:59;393.90;;;104.60;;
23418;SDS011;11882;42.522;27.458;2022-10-15T01:53:28;428.33;;;181.67;;
23418;SDS011;11882;42.522;27.458;2022-10-15T01:55:59;432.23;;;201.17;;
23418;SDS011;11882;42.522;27.458;2022-10-15T01:58:29;412.60;;;154.37;;
23418;SDS011;11882;42.522;27.458;2022-10-15T02:00:58;402.67;;;132.53;;
23418;SDS011;11882;42.522;27.458;2022-10-15T02:03:25;403.87;;;132.10;;
23418;SDS011;11882;42.522;27.458;2022-10-15T02:05:54;384.37;;;97.27;;
23418;SDS011;11882;42.522;27.458;2022-10-15T02:08:27;384.57;;;93.50;;
23418;SDS011;11882;42.522;27.458;2022-10-15T02:11:02;401.50;;;131.23;;
23418;SDS011;11882;42.522;27.458;2022-10-15T02:13:32;492.07;;;324.53;;
23418;SDS011;11882;42.522;27.458;2022-10-15T02:16:14;408.20;;;155.37;;
23418;SDS011;11882;42.522;27.458;2022-10-15T02:18:50;366.10;;;96.93;;
23418;SDS011;11882;42.522;27.458;2022-10-15T02:21:23;159.10;;;61.77;;
23418;SDS011;11882;42.522;27.458;2022-10-15T02:23:57;413.60;;;324.33;;
23418;SDS011;11882;42.522;27.458;2022-10-15T02:26:32;6.03;;;1.60;;
23418;SDS011;11882;42.522;27.458;2022-10-15T02:29:00;4.67;;;1.83;;
23418;SDS011;11882;42.522;27.458;2022-10-15T02:31:32;2.77;;;1.80;;
23418;SDS011;11882;42.522;27.458;2022-10-15T02:34:03;6.30;;;2.07;;
23418;SDS011;11882;42.522;27.458;2022-10-15T02:36:33;2.80;;;1.10;;
23418;SDS011;11882;42.522;27.458;2022-10-15T02:39:00;5.00;;;2.10;;
23418;SDS011;11882;42.522;27.458;2022-10-15T02:41:29;4.93;;;2.20;;
23418;SDS011;11882;42.522;27.458;2022-10-15T02:43:59;5.10;;;2.10;;
23418;SDS011;11882;42.522;27.458;2022-10-15T02:46:25;4.33;;;2.23;;
23418;SDS011;11882;42.522;27.458;2022-10-15T02:48:54;3.60;;;1.73;;
23418;SDS011;11882;42.522;27.458;2022-10-15T02:51:21;7.23;;;1.83;;
23418;SDS011;11882;42.522;27.458;2022-10-15T02:53:49;5.20;;;1.70;;
23418;SDS011;11882;42.522;27.458;2022-10-15T02:56:16;4.20;;;2.10;;
23418;SDS011;11882;42.522;27.458;2022-10-15T02:58:43;4.70;;;2.47;;
23418;SDS011;11882;42.522;27.458;2022-10-15T03:01:10;3.33;;;1.73;;
23418;SDS011;11882;42.522;27.458;2022-10-15T03:03:38;5.20;;;1.90;;
23418;SDS011;11882;42.522;27.458;2022-10-15T03:06:06;5.43;;;1.80;;
23418;SDS011;11882;42.522;27.458;2022-10-15T03:08:33;4.47;;;1.90;;
23418;SDS011;11882;42.522;27.458;2022-10-15T03:11:00;3.23;;;2.03;;
23418;SDS011;11882;42.522;27.458;2022-10-15T03:13:27;6.30;;;2.07;;
23418;SDS011;11882;42.522;27.458;2022-10-15T03:15:55;16.70;;;10.30;;
23418;SDS011;11882;42.522;27.458;2022-10-15T03:18:22;258.17;;;230.97;;
23418;SDS011;11882;42.522;27.458;2022-10-15T03:20:53;3.97;;;1.93;;
23418;SDS011;11882;42.522;27.458;2022-10-15T03:23:21;7.83;;;2.20;;
23418;SDS011;11882;42.522;27.458;2022-10-15T03:25:49;7.67;;;3.10;;
23418;SDS011;11882;42.522;27.458;2022-10-15T03:28:16;36.40;;;32.10;;
23418;SDS011;11882;42.522;27.458;2022-10-15T03:30:44;6.20;;;2.53;;
23418;SDS011;11882;42.522;27.458;2022-10-15T03:33:12;3.87;;;2.17;;
23418;SDS011;11882;42.522;27.458;2022-10-15T03:35:39;14.47;;;13.23;;
23418;SDS011;11882;42.522;27.458;2022-10-15T03:38:06;5.23;;;2.10;;
23418;SDS011;11882;42.522;27.458;2022-10-15T03:40:34;5.67;;;2.20;;
23418;SDS011;11882;42.522;27.458;2022-10-15T03:43:01;4.30;;;2.20;;
23418;SDS011;11882;42.522;27.458;2022-10-15T03:45:28;4.17;;;2.13;;
23418;SDS011;11882;42.522;27.458;2022-10-15T03:47:55;6.70;;;2.33;;
23418;SDS011;11882;42.522;27.458;2022-10-15T03:50:22;41.27;;;21.73;;
23418;SDS011;11882;42.522;27.458;2022-10-15T03:52:49;3.87;;;1.63;;
23418;SDS011;11882;42.522;27.458;2022-10-15T03:55:16;119.77;;;99.47;;
23418;SDS011;11882;42.522;27.458;2022-10-15T03:57:44;113.57;;;78.23;;
23418;SDS011;11882;42.522;27.458;2022-10-15T04:00:11;165.30;;;59.17;;
23418;SDS011;11882;42.522;27.458;2022-10-15T04:02:39;5.83;;;2.60;;
23418;SDS011;11882;42.522;27.458;2022-10-15T04:05:06;5.23;;;2.60;;
23418;SDS011;11882;42.522;27.458;2022-10-15T04:07:33;5.03;;;2.23;;
23418;SDS011;11882;42.522;27.458;2022-10-15T04:10:00;5.47;;;2.30;;
23418;SDS011;11882;42.522;27.458;2022-10-15T04:12:27;5.87;;;2.20;;
23418;SDS011;11882;42.522;27.458;2022-10-15T04:14:56;3.60;;;1.90;;
23418;SDS011;11882;42.522;27.458;2022-10-15T04:17:22;3.77;;;2.03;;
23418;SDS011;11882;42.522;27.458;2022-10-15T04:19:49;4.77;;;2.10;;
23418;SDS011;11882;42.522;27.458;2022-10-15T04:22:16;4.03;;;3.10;;
23418;SDS011;11882;42.522;27.458;2022-10-15T04:24:43;386.63;;;150.07;;
23418;SDS011;11882;42.522;27.458;2022-10-15T04:27:11;5.00;;;2.20;;
23418;SDS011;11882;42.522;27.458;2022-10-15T04:29:38;38.50;;;11.50;;
23418;SDS011;11882;42.522;27.458;2022-10-15T04:32:07;4.47;;;2.20;;
23418;SDS011;11882;42.522;27.458;2022-10-15T04:34:38;440.77;;;167.03;;
23418;SDS011;11882;42.522;27.458;2022-10-15T04:37:04;193.30;;;128.23;;
23418;SDS011;11882;42.522;27.458;2022-10-15T04:39:32;4.67;;;2.47;;
23418;SDS011;11882;42.522;27.458;2022-10-15T04:41:59;4.53;;;2.50;;
23418;SDS011;11882;42.522;27.458;2022-10-15T04:44:26;3.90;;;2.50;;
23418;SDS011;11882;42.522;27.458;2022-10-15T04:46:53;5.40;;;2.77;;
23418;SDS011;11882;42.522;27.458;2022-10-15T04:49:21;142.27;;;56.50;;
23418;SDS011;11882;42.522;27.458;2022-10-15T04:51:49;392.53;;;87.30;;
23418;SDS011;11882;42.522;27.458;2022-10-15T04:54:16;399.00;;;93.10;;
23418;SDS011;11882;42.522;27.458;2022-10-15T04:56:42;405.03;;;105.07;;
23418;SDS011;11882;42.522;27.458;2022-10-15T04:59:09;423.37;;;116.70;;
23418;SDS011;11882;42.522;27.458;2022-10-15T05:01:36;359.10;;;149.97;;
23418;SDS011;11882;42.522;27.458;2022-10-15T05:04:03;12.47;;;8.83;;
23418;SDS011;11882;42.522;27.458;2022-10-15T05:06:32;4.20;;;3.10;;
23418;SDS011;11882;42.522;27.458;2022-10-15T05:08:59;429.33;;;135.63;;
23418;SDS011;11882;42.522;27.458;2022-10-15T05:11:27;4.63;;;2.67;;
23418;SDS011;11882;42.522;27.458;2022-10-15T05:13:54;6.17;;;2.60;;
23418;SDS011;11882;42.522;27.458;2022-10-15T05:16:23;345.00;;;288.33;;
23418;SDS011;11882;42.522;27.458;2022-10-15T05:18:54;8.27;;;2.80;;
23418;SDS011;11882;42.522;27.458;2022-10-15T05:21:22;6.40;;;2.80;;
23418;SDS011;11882;42.522;27.458;2022-10-15T05:23:51;5.47;;;3.13;;
23418;SDS011;11882;42.522;27.458;2022-10-15T05:26:18;6.20;;;3.10;;
23418;SDS011;11882;42.522;27.458;2022-10-15T05:28:46;8.80;;;2.90;;
23418;SDS011;11882;42.522;27.458;2022-10-15T05:31:14;6.07;;;2.93;;
23418;SDS011;11882;42.522;27.458;2022-10-15T05:33:42;4.83;;;2.70;;
23418;SDS011;11882;42.522;27.458;2022-10-15T05:36:10;9.13;;;3.87;;
23418;SDS011;11882;42.522;27.458;2022-10-15T05:38:38;4.10;;;2.80;;
23418;SDS011;11882;42.522;27.458;2022-10-15T05:41:07;5.03;;;2.60;;
23418;SDS011;11882;42.522;27.458;2022-10-15T05:43:34;5.80;;;2.90;;
23418;SDS011;11882;42.522;27.458;2022-10-15T05:46:01;5.17;;;3.07;;
23418;SDS011;11882;42.522;27.458;2022-10-15T05:48:28;4.77;;;2.43;;
23418;SDS011;11882;42.522;27.458;2022-10-15T05:50:59;5.10;;;3.00;;
23418;SDS011;11882;42.522;27.458;2022-10-15T05:53:27;3.87;;;2.67;;
23418;SDS011;11882;42.522;27.458;2022-10-15T05:55:54;5.40;;;2.93;;
23418;SDS011;11882;42.522;27.458;2022-10-15T05:58:24;7.80;;;3.17;;
23418;SDS011;11882;42.522;27.458;2022-10-15T06:00:54;6.47;;;3.00;;
23418;SDS011;11882;42.522;27.458;2022-10-15T06:03:22;5.87;;;3.10;;
23418;SDS011;11882;42.522;27.458;2022-10-15T06:05:50;7.67;;;2.90;;
23418;SDS011;11882;42.522;27.458;2022-10-15T06:08:17;9.50;;;3.60;;
23418;SDS011;11882;42.522;27.458;2022-10-15T06:10:44;8.37;;;3.30;;
23418;SDS011;11882;42.522;27.458;2022-10-15T06:13:11;6.80;;;4.40;;
23418;SDS011;11882;42.522;27.458;2022-10-15T06:15:40;7.33;;;3.53;;
23418;SDS011;11882;42.522;27.458;2022-10-15T06:18:08;8.23;;;3.63;;
23418;SDS011;11882;42.522;27.458;2022-10-15T06:20:36;6.77;;;3.10;;
23418;SDS011;11882;42.522;27.458;2022-10-15T06:23:04;6.57;;;3.60;;
23418;SDS011;11882;42.522;27.458;2022-10-15T06:25:32;8.60;;;3.30;;
23418;SDS011;11882;42.522;27.458;2022-10-15T06:27:59;6.20;;;3.30;;
23418;SDS011;11882;42.522;27.458;2022-10-15T06:30:27;6.43;;;3.37;;
23418;SDS011;11882;42.522;27.458;2022-10-15T06:32:56;8.37;;;4.20;;
23418;SDS011;11882;42.522;27.458;2022-10-15T06:35:23;9.80;;;4.47;;
23418;SDS011;11882;42.522;27.458;2022-10-15T06:37:54;8.80;;;5.20;;
23418;SDS011;11882;42.522;27.458;2022-10-15T06:40:21;6.23;;;3.20;;
23418;SDS011;11882;42.522;27.458;2022-10-15T06:42:48;7.77;;;4.00;;
23418;SDS011;11882;42.522;27.458;2022-10-15T06:45:15;11.37;;;4.60;;
23418;SDS011;11882;42.522;27.458;2022-10-15T06:47:42;12.73;;;4.20;;
23418;SDS011;11882;42.522;27.458;2022-10-15T06:50:10;7.13;;;4.90;;
23418;SDS011;11882;42.522;27.458;2022-10-15T06:52:38;9.00;;;3.77;;
23418;SDS011;11882;42.522;27.458;2022-10-15T06:55:05;6.80;;;3.97;;
23418;SDS011;11882;42.522;27.458;2022-10-15T06:57:33;7.47;;;3.67;;
23418;SDS011;11882;42.522;27.458;2022-10-15T07:00:00;10.00;;;3.77;;
23418;SDS011;11882;42.522;27.458;2022-10-15T07:02:27;8.83;;;3.90;;
23418;SDS011;11882;42.522;27.458;2022-10-15T07:04:54;9.87;;;3.87;;
23418;SDS011;11882;42.522;27.458;2022-10-15T07:07:23;13.17;;;4.73;;
23418;SDS011;11882;42.522;27.458;2022-10-15T07:09:50;8.60;;;3.90;;
23418;SDS011;11882;42.522;27.458;2022-10-15T07:12:19;6.10;;;3.27;;
23418;SDS011;11882;42.522;27.458;2022-10-15T07:14:46;8.77;;;3.50;;
23418;SDS011;11882;42.522;27.458;2022-10-15T07:17:14;10.33;;;3.63;;
23418;SDS011;11882;42.522;27.458;2022-10-15T07:19:42;8.63;;;4.90;;
23418;SDS011;11882;42.522;27.458;2022-10-15T07:22:09;7.37;;;3.87;;
23418;SDS011;11882;42.522;27.458;2022-10-15T07:24:38;8.17;;;4.10;;
23418;SDS011;11882;42.522;27.458;2022-10-15T07:27:05;8.47;;;3.80;;
23418;SDS011;11882;42.522;27.458;2022-10-15T07:29:32;5.83;;;3.43;;
23418;SDS011;11882;42.522;27.458;2022-10-15T07:31:59;7.83;;;4.33;;
23418;SDS011;11882;42.522;27.458;2022-10-15T07:34:26;11.10;;;3.70;;
23418;SDS011;11882;42.522;27.458;2022-10-15T07:36:53;8.33;;;3.83;;
23418;SDS011;11882;42.522;27.458;2022-10-15T07:39:20;9.37;;;3.57;;
23418;SDS011;11882;42.522;27.458;2022-10-15T07:41:48;6.80;;;3.57;;
23418;SDS011;11882;42.522;27.458;2022-10-15T07:44:15;6.03;;;3.63;;
23418;SDS011;11882;42.522;27.458;2022-10-15T07:46:42;11.27;;;3.93;;
23418;SDS011;11882;42.522;27.458;2022-10-15T07:49:09;9.27;;;4.83;;
23418;SDS011;11882;42.522;27.458;2022-10-15T07:51:36;12.33;;;3.97;;
23418;SDS011;11882;42.522;27.458;2022-10-15T07:54:03;6.37;;;3.10;;
23418;SDS011;11882;42.522;27.458;2022-10-15T07:56:30;7.43;;;3.47;;
23418;SDS011;11882;42.522;27.458;2022-10-15T07:58:59;7.63;;;3.40;;
23418;SDS011;11882;42.522;27.458;2022-10-15T08:01:26;6.43;;;3.23;;
23418;SDS011;11882;42.522;27.458;2022-10-15T08:03:52;7.47;;;3.20;;
23418;SDS011;11882;42.522;27.458;2022-10-15T08:06:20;6.83;;;3.73;;
23418;SDS011;11882;42.522;27.458;2022-10-15T08:08:47;8.43;;;3.83;;
23418;SDS011;11882;42.522;27.458;2022-10-15T08:11:14;9.17;;;4.90;;
23418;SDS011;11882;42.522;27.458;2022-10-15T08:13:42;6.73;;;3.23;;
23418;SDS011;11882;42.522;27.458;2022-10-15T08:16:13;15.03;;;4.43;;
23418;SDS011;11882;42.522;27.458;2022-10-15T08:18:43;11.03;;;4.00;;
23418;SDS011;11882;42.522;27.458;2022-10-15T08:21:10;6.80;;;3.83;;
23418;SDS011;11882;42.522;27.458;2022-10-15T08:23:38;9.70;;;3.67;;
23418;SDS011;11882;42.522;27.458;2022-10-15T08:26:05;10.13;;;3.63;;
23418;SDS011;11882;42.522;27.458;2022-10-15T08:28:32;9.33;;;3.47;;
23418;SDS011;11882;42.522;27.458;2022-10-15T08:31:00;6.60;;;3.40;;
23418;SDS011;11882;42.522;27.458;2022-10-15T08:33:29;8.03;;;3.40;;
23418;SDS011;11882;42.522;27.458;2022-10-15T08:35:57;6.27;;;2.93;;
23418;SDS011;11882;42.522;27.458;2022-10-15T08:38:24;10.03;;;3.90;;
23418;SDS011;11882;42.522;27.458;2022-10-15T08:40:51;9.87;;;4.23;;
23418;SDS011;11882;42.522;27.458;2022-10-15T08:43:20;8.50;;;4.40;;
23418;SDS011;11882;42.522;27.458;2022-10-15T08:45:51;8.23;;;3.50;;
23418;SDS011;11882;42.522;27.458;2022-10-15T08:48:26;11.23;;;4.23;;
23418;SDS011;11882;42.522;27.458;2022-10-15T08:50:58;9.40;;;3.60;;
23418;SDS011;11882;42.522;27.458;2022-10-15T08:53:28;7.17;;;3.30;;
23418;SDS011;11882;42.522;27.458;2022-10-15T08:56:01;6.67;;;2.97;;
23418;SDS011;11882;42.522;27.458;2022-10-15T08:58:37;7.33;;;3.13;;
23418;SDS011;11882;42.522;27.458;2022-10-15T09:01:13;6.53;;;3.13;;
23418;SDS011;11882;42.522;27.458;2022-10-15T09:03:49;6.73;;;3.27;;
23418;SDS011;11882;42.522;27.458;2022-10-15T09:06:29;8.53;;;3.57;;
23418;SDS011;11882;42.522;27.458;2022-10-15T09:09:01;5.80;;;3.00;;
23418;SDS011;11882;42.522;27.458;2022-10-15T09:11:35;6.83;;;3.20;;
23418;SDS011;11882;42.522;27.458;2022-10-15T09:14:10;7.63;;;3.40;;
23418;SDS011;11882;42.522;27.458;2022-10-15T09:16:41;6.00;;;3.07;;
23418;SDS011;11882;42.522;27.458;2022-10-15T09:19:14;6.60;;;3.50;;
23418;SDS011;11882;42.522;27.458;2022-10-15T09:21:45;8.40;;;3.73;;
23418;SDS011;11882;42.522;27.458;2022-10-15T09:24:16;7.60;;;3.00;;
23418;SDS011;11882;42.522;27.458;2022-10-15T09:26:50;6.33;;;3.03;;
23418;SDS011;11882;42.522;27.458;2022-10-15T09:29:26;6.60;;;3.07;;
23418;SDS011;11882;42.522;27.458;2022-10-15T09:32:02;8.13;;;3.30;;
23418;SDS011;11882;42.522;27.458;2022-10-15T09:34:38;9.90;;;3.20;;
23418;SDS011;11882;42.522;27.458;2022-10-15T09:37:13;7.63;;;2.93;;
23418;SDS011;11882;42.522;27.458;2022-10-15T09:39:56;10.20;;;3.40;;
23418;SDS011;11882;42.522;27.458;2022-10-15T09:42:35;7.90;;;3.13;;
23418;SDS011;11882;42.522;27.458;2022-10-15T09:45:04;6.67;;;2.93;;
23418;SDS011;11882;42.522;27.458;2022-10-15T09:47:35;9.50;;;3.60;;
23418;SDS011;11882;42.522;27.458;2022-10-15T09:50:03;5.43;;;2.80;;
23418;SDS011;11882;42.522;27.458;2022-10-15T09:52:46;11.80;;;3.83;;
23418;SDS011;11882;42.522;27.458;2022-10-15T09:55:32;6.23;;;2.47;;
23418;SDS011;11882;42.522;27.458;2022-10-15T09:58:04;7.17;;;3.07;;
23418;SDS011;11882;42.522;27.458;2022-10-15T10:00:56;8.03;;;2.90;;
23418;SDS011;11882;42.522;27.458;2022-10-15T10:03:25;6.93;;;3.00;;
23418;SDS011;11882;42.522;27.458;2022-10-15T10:08:45;11.70;;;3.53;;
23418;SDS011;11882;42.522;27.458;2022-10-15T10:11:15;8.33;;;3.27;;
23418;SDS011;11882;42.522;27.458;2022-10-15T10:13:44;8.60;;;3.27;;
23418;SDS011;11882;42.522;27.458;2022-10-15T10:16:16;9.63;;;3.20;;
23418;SDS011;11882;42.522;27.458;2022-10-15T10:19:00;6.73;;;3.30;;
23418;SDS011;11882;42.522;27.458;2022-10-15T10:21:30;7.70;;;2.70;;
23418;SDS011;11882;42.522;27.458;2022-10-15T10:26:45;7.93;;;2.93;;
23418;SDS011;11882;42.522;27.458;2022-10-15T10:29:15;7.90;;;3.00;;
23418;SDS011;11882;42.522;27.458;2022-10-15T10:31:45;7.97;;;4.00;;
23418;SDS011;11882;42.522;27.458;2022-10-15T10:34:18;9.37;;;3.33;;
23418;SDS011;11882;42.522;27.458;2022-10-15T10:36:51;10.43;;;3.63;;
23418;SDS011;11882;42.522;27.458;2022-10-15T10:39:23;7.13;;;3.67;;
23418;SDS011;11882;42.522;27.458;2022-10-15T10:41:53;11.63;;;2.90;;
23418;SDS011;11882;42.522;27.458;2022-10-15T10:44:25;8.93;;;3.20;;
23418;SDS011;11882;42.522;27.458;2022-10-15T10:47:01;8.23;;;2.97;;
23418;SDS011;11882;42.522;27.458;2022-10-15T10:49:36;6.03;;;2.60;;
23418;SDS011;11882;42.522;27.458;2022-10-15T10:52:05;11.13;;;3.30;;
23418;SDS011;11882;42.522;27.458;2022-10-15T10:54:45;9.37;;;2.93;;
23418;SDS011;11882;42.522;27.458;2022-10-15T10:57:13;7.13;;;2.80;;
23418;SDS011;11882;42.522;27.458;2022-10-15T10:59:48;4.53;;;2.20;;
23418;SDS011;11882;42.522;27.458;2022-10-15T11:02:18;7.73;;;2.43;;
23418;SDS011;11882;42.522;27.458;2022-10-15T11:04:45;6.23;;;2.50;;
23418;SDS011;11882;42.522;27.458;2022-10-15T11:07:14;8.47;;;2.37;;
23418;SDS011;11882;42.522;27.458;2022-10-15T11:09:50;5.73;;;2.83;;
23418;SDS011;11882;42.522;27.458;2022-10-15T11:15:29;10.20;;;3.43;;
23418;SDS011;11882;42.522;27.458;2022-10-15T11:18:06;5.67;;;3.10;;
23418;SDS011;11882;42.522;27.458;2022-10-15T11:20:46;9.20;;;2.93;;
23418;SDS011;11882;42.522;27.458;2022-10-15T11:23:23;7.27;;;3.47;;
23418;SDS011;11882;42.522;27.458;2022-10-15T11:26:07;6.77;;;2.47;;
23418;SDS011;11882;42.522;27.458;2022-10-15T11:28:50;6.47;;;2.90;;
23418;SDS011;11882;42.522;27.458;2022-10-15T11:31:28;7.30;;;2.40;;
23418;SDS011;11882;42.522;27.458;2022-10-15T11:34:07;5.77;;;2.43;;
23418;SDS011;11882;42.522;27.458;2022-10-15T11:36:51;6.50;;;2.30;;
23418;SDS011;11882;42.522;27.458;2022-10-15T11:39:40;8.80;;;2.70;;
23418;SDS011;11882;42.522;27.458;2022-10-15T11:42:17;6.30;;;2.67;;
23418;SDS011;11882;42.522;27.458;2022-10-15T11:47:46;8.63;;;2.80;;
23418;SDS011;11882;42.522;27.458;2022-10-15T11:50:23;7.20;;;2.57;;
23418;SDS011;11882;42.522;27.458;2022-10-15T11:53:07;6.57;;;2.50;;
23418;SDS011;11882;42.522;27.458;2022-10-15T11:55:49;6.67;;;2.53;;
23418;SDS011;11882;42.522;27.458;2022-10-15T11:58:25;5.70;;;3.10;;
23418;SDS011;11882;42.522;27.458;2022-10-15T12:00:57;6.73;;;2.63;;
23418;SDS011;11882;42.522;27.458;2022-10-15T12:03:29;5.50;;;2.50;;
23418;SDS011;11882;42.522;27.458;2022-10-15T12:06:00;6.37;;;2.20;;
23418;SDS011;11882;42.522;27.458;2022-10-15T12:08:32;6.93;;;2.80;;
23418;SDS011;11882;42.522;27.458;2022-10-15T12:11:03;7.27;;;3.60;;
23418;SDS011;11882;42.522;27.458;2022-10-15T12:13:44;5.80;;;2.90;;
23418;SDS011;11882;42.522;27.458;2022-10-15T12:16:21;6.00;;;2.70;;
23418;SDS011;11882;42.522;27.458;2022-10-15T12:18:56;5.93;;;2.43;;
23418;SDS011;11882;42.522;27.458;2022-10-15T12:21:34;7.53;;;2.57;;
23418;SDS011;11882;42.522;27.458;2022-10-15T12:24:03;6.20;;;2.70;;
23418;SDS011;11882;42.522;27.458;2022-10-15T12:26:34;7.20;;;2.70;;
23418;SDS011;11882;42.522;27.458;2022-10-15T12:29:03;7.40;;;2.67;;
23418;SDS011;11882;42.522;27.458;2022-10-15T12:31:42;7.67;;;2.83;;
23418;SDS011;11882;42.522;27.458;2022-10-15T12:37:05;9.47;;;2.23;;
23418;SDS011;11882;42.522;27.458;2022-10-15T12:39:40;5.70;;;2.50;;
23418;SDS011;11882;42.522;27.458;2022-10-15T12:42:16;5.63;;;2.17;;
23418;SDS011;11882;42.522;27.458;2022-10-15T12:44:50;6.60;;;2.20;;
23418;SDS011;11882;42.522;27.458;2022-10-15T12:50:16;5.93;;;2.83;;
23418;SDS011;11882;42.522;27.458;2022-10-15T12:52:52;6.30;;;3.00;;
23418;SDS011;11882;42.522;27.458;2022-10-15T12:55:26;5.30;;;2.20;;
23418;SDS011;11882;42.522;27.458;2022-10-15T12:57:56;7.53;;;2.60;;
23418;SDS011;11882;42.522;27.458;2022-10-15T13:03:16;6.23;;;2.50;;
23418;SDS011;11882;42.522;27.458;2022-10-15T13:05:48;5.63;;;2.47;;
23418;SDS011;11882;42.522;27.458;2022-10-15T13:08:18;5.63;;;2.60;;
23418;SDS011;11882;42.522;27.458;2022-10-15T13:10:49;7.60;;;2.60;;
23418;SDS011;11882;42.522;27.458;2022-10-15T13:13:20;4.23;;;2.20;;
23418;SDS011;11882;42.522;27.458;2022-10-15T13:15:51;8.87;;;2.53;;
23418;SDS011;11882;42.522;27.458;2022-10-15T13:18:22;6.33;;;2.47;;
23418;SDS011;11882;42.522;27.458;2022-10-15T13:20:50;5.93;;;2.50;;
23418;SDS011;11882;42.522;27.458;2022-10-15T13:23:21;5.43;;;2.57;;
23418;SDS011;11882;42.522;27.458;2022-10-15T13:25:52;6.30;;;2.70;;
23418;SDS011;11882;42.522;27.458;2022-10-15T13:28:37;16.00;;;10.00;;
23418;SDS011;11882;42.522;27.458;2022-10-15T13:31:12;7.63;;;3.50;;
23418;SDS011;11882;42.522;27.458;2022-10-15T13:33:43;7.03;;;2.90;;
23418;SDS011;11882;42.522;27.458;2022-10-15T13:36:16;6.53;;;2.73;;
23418;SDS011;11882;42.522;27.458;2022-10-15T13:38:50;5.87;;;2.60;;
23418;SDS011;11882;42.522;27.458;2022-10-15T13:41:26;7.20;;;2.63;;
23418;SDS011;11882;42.522;27.458;2022-10-15T13:43:55;7.63;;;2.73;;
23418;SDS011;11882;42.522;27.458;2022-10-15T13:46:27;8.47;;;3.60;;
23418;SDS011;11882;42.522;27.458;2022-10-15T13:48:56;7.87;;;3.00;;
23418;SDS011;11882;42.522;27.458;2022-10-15T13:51:27;9.30;;;4.00;;
23418;SDS011;11882;42.522;27.458;2022-10-15T13:53:59;14.73;;;6.27;;
23418;SDS011;11882;42.522;27.458;2022-10-15T13:56:27;9.97;;;5.10;;
23418;SDS011;11882;42.522;27.458;2022-10-15T13:58:57;12.83;;;5.43;;
23418;SDS011;11882;42.522;27.458;2022-10-15T14:01:27;9.70;;;5.03;;
23418;SDS011;11882;42.522;27.458;2022-10-15T14:03:57;8.10;;;4.23;;
23418;SDS011;11882;42.522;27.458;2022-10-15T14:06:26;8.03;;;3.13;;
23418;SDS011;11882;42.522;27.458;2022-10-15T14:08:55;7.70;;;2.77;;
23418;SDS011;11882;42.522;27.458;2022-10-15T14:11:23;8.07;;;3.97;;
23418;SDS011;11882;42.522;27.458;2022-10-15T14:13:51;5.20;;;2.63;;
23418;SDS011;11882;42.522;27.458;2022-10-15T14:16:20;6.17;;;2.23;;
23418;SDS011;11882;42.522;27.458;2022-10-15T14:18:53;6.23;;;2.60;;
23418;SDS011;11882;42.522;27.458;2022-10-15T14:21:23;8.37;;;2.73;;
23418;SDS011;11882;42.522;27.458;2022-10-15T14:24:01;7.60;;;3.53;;
23418;SDS011;11882;42.522;27.458;2022-10-15T14:26:30;9.37;;;4.40;;
23418;SDS011;11882;42.522;27.458;2022-10-15T14:28:58;8.57;;;2.90;;
23418;SDS011;11882;42.522;27.458;2022-10-15T14:31:28;6.83;;;2.80;;
23418;SDS011;11882;42.522;27.458;2022-10-15T14:33:59;8.53;;;2.93;;
23418;SDS011;11882;42.522;27.458;2022-10-15T14:36:27;5.20;;;3.00;;
23418;SDS011;11882;42.522;27.458;2022-10-15T14:41:54;6.13;;;2.90;;
23418;SDS011;11882;42.522;27.458;2022-10-15T14:44:38;6.90;;;3.17;;
23418;SDS011;11882;42.522;27.458;2022-10-15T14:47:09;7.27;;;2.90;;
23418;SDS011;11882;42.522;27.458;2022-10-15T14:49:46;6.23;;;3.60;;
23418;SDS011;11882;42.522;27.458;2022-10-15T14:52:15;14.63;;;8.40;;
23418;SDS011;11882;42.522;27.458;2022-10-15T14:54:45;8.50;;;2.37;;
23418;SDS011;11882;42.522;27.458;2022-10-15T14:57:21;4.70;;;2.47;;
23418;SDS011;11882;42.522;27.458;2022-10-15T14:59:52;6.70;;;2.33;;
23418;SDS011;11882;42.522;27.458;2022-10-15T15:02:21;4.00;;;2.50;;
23418;SDS011;11882;42.522;27.458;2022-10-15T15:05:02;6.20;;;2.30;;
23418;SDS011;11882;42.522;27.458;2022-10-15T15:07:33;7.87;;;3.70;;
23418;SDS011;11882;42.522;27.458;2022-10-15T15:09:59;18.17;;;11.10;;
23418;SDS011;11882;42.522;27.458;2022-10-15T15:12:27;4.93;;;2.53;;
23418;SDS011;11882;42.522;27.458;2022-10-15T15:14:55;3.67;;;2.10;;
23418;SDS011;11882;42.522;27.458;2022-10-15T15:17:23;8.23;;;3.20;;